sensor_id;sensor_type;location;lat;lon;timestamp;P1;P2;P0
69416;PMS5003;61386;54.994;73.448;2022-07-15T00:01:35;22.00;21.00;10.50
69416;PMS5003;61386;54.994;73.448;2022-07-15T00:04:06;24.50;21.75;12.00
69416;PMS5003;61386;54.994;73.448;2022-07-15T00:06:35;23.75;21.00;11.00
69416;PMS5003;61386;54.994;73.448;2022-07-15T00:09:00;23.00;20.25;8.00
69416;PMS5003;61386;54.994;73.448;2022-07-15T00:11:26;24.00;23.00;10.00
69416;PMS5003;61386;54.994;73.448;2022-07-15T00:13:52;22.00;22.00;10.00
69416;PMS5003;61386;54.994;73.448;2022-07-15T00:16:18;22.75;22.75;11.00
69416;PMS5003;61386;54.994;73.448;2022-07-15T00:18:44;23.75;23.00;11.25
69416;PMS5003;61386;54.994;73.448;2022-07-15T00:21:15;24.00;24.00;11.25
69416;PMS5003;61386;54.994;73.448;2022-07-15T00:23:41;27.25;26.50;15.00
69416;PMS5003;61386;54.994;73.448;2022-07-15T00:26:10;29.00;27.00;12.00
69416;PMS5003;61386;54.994;73.448;2022-07-15T00:28:36;28.00;25.50;12.75
69416;PMS5003;61386;54.994;73.448;2022-07-15T00:31:07;26.75;26.50;14.00
69416;PMS5003;61386;54.994;73.448;2022-07-15T00:33:33;25.25;25.00;14.75
69416;PMS5003;61386;54.994;73.448;2022-07-15T00:35:59;24.00;23.00;13.00
69416;PMS5003;61386;54.994;73.448;2022-07-15T00:38:25;25.00;24.00;10.50
69416;PMS5003;61386;54.994;73.448;2022-07-15T00:40:51;25.00;22.00;10.00
69416;PMS5003;61386;54.994;73.448;2022-07-15T00:43:18;23.25;23.25;11.00
69416;PMS5003;61386;54.994;73.448;2022-07-15T00:45:52;24.00;23.00;12.00
69416;PMS5003;61386;54.994;73.448;2022-07-15T00:48:23;20.50;20.00;11.00
69416;PMS5003;61386;54.994;73.448;2022-07-15T00:50:50;19.00;19.00;8.00
69416;PMS5003;61386;54.994;73.448;2022-07-15T00:53:19;20.00;19.00;9.00
69416;PMS5003;61386;54.994;73.448;2022-07-15T00:55:56;20.00;20.00;8.00
69416;PMS5003;61386;54.994;73.448;2022-07-15T00:58:25;20.00;19.00;6.00
69416;PMS5003;61386;54.994;73.448;2022-07-15T01:00:53;20.25;18.25;8.00
69416;PMS5003;61386;54.994;73.448;2022-07-15T01:03:20;21.00;19.00;7.00
69416;PMS5003;61386;54.994;73.448;2022-07-15T01:05:47;20.00;18.00;6.00
69416;PMS5003;61386;54.994;73.448;2022-07-15T01:08:19;17.00;15.00;6.25
69416;PMS5003;61386;54.994;73.448;2022-07-15T01:10:51;16.25;15.00;7.00
69416;PMS5003;61386;54.994;73.448;2022-07-15T01:13:21;15.00;14.25;6.00
69416;PMS5003;61386;54.994;73.448;2022-07-15T01:15:47;17.50;15.25;6.00
69416;PMS5003;61386;54.994;73.448;2022-07-15T01:18:18;17.00;17.00;6.00
69416;PMS5003;61386;54.994;73.448;2022-07-15T01:20:45;14.75;14.25;6.00
69416;PMS5003;61386;54.994;73.448;2022-07-15T01:23:14;15.00;15.00;6.00
69416;PMS5003;61386;54.994;73.448;2022-07-15T01:25:54;14.00;13.00;5.00
69416;PMS5003;61386;54.994;73.448;2022-07-15T01:28:21;13.50;12.50;7.25
69416;PMS5003;61386;54.994;73.448;2022-07-15T01:30:53;16.50;15.25;6.75
69416;PMS5003;61386;54.994;73.448;2022-07-15T01:33:20;16.00;15.50;6.75
69416;PMS5003;61386;54.994;73.448;2022-07-15T01:35:57;16.00;16.00;6.00
69416;PMS5003;61386;54.994;73.448;2022-07-15T01:38:26;14.00;14.00;5.00
69416;PMS5003;61386;54.994;73.448;2022-07-15T01:40:58;13.00;12.75;5.25
69416;PMS5003;61386;54.994;73.448;2022-07-15T01:43:24;12.50;12.50;6.75
69416;PMS5003;61386;54.994;73.448;2022-07-15T01:45:50;14.00;13.00;6.00
69416;PMS5003;61386;54.994;73.448;2022-07-15T01:48:25;13.00;12.25;5.00
69416;PMS5003;61386;54.994;73.448;2022-07-15T01:51:36;13.00;13.00;5.00
69416;PMS5003;61386;54.994;73.448;2022-07-15T01:54:09;12.00;12.00;5.00
69416;PMS5003;61386;54.994;73.448;2022-07-15T01:56:40;12.25;12.00;6.00
69416;PMS5003;61386;54.994;73.448;2022-07-15T01:59:07;15.00;12.75;6.00
69416;PMS5003;61386;54.994;73.448;2022-07-15T02:01:40;12.50;10.00;5.25
69416;PMS5003;61386;54.994;73.448;2022-07-15T02:04:11;14.00;10.25;5.00
69416;PMS5003;61386;54.994;73.448;2022-07-15T02:06:39;14.00;11.75;5.50
69416;PMS5003;61386;54.994;73.448;2022-07-15T02:09:06;12.00;10.50;5.00
69416;PMS5003;61386;54.994;73.448;2022-07-15T02:11:37;11.00;10.75;2.25
69416;PMS5003;61386;54.994;73.448;2022-07-15T02:14:04;10.00;10.00;4.00
69416;PMS5003;61386;54.994;73.448;2022-07-15T02:16:31;10.75;10.75;5.00
69416;PMS5003;61386;54.994;73.448;2022-07-15T02:19:00;11.25;11.25;4.50
69416;PMS5003;61386;54.994;73.448;2022-07-15T02:21:26;13.25;13.25;4.50
69416;PMS5003;61386;54.994;73.448;2022-07-15T02:23:52;13.25;13.25;5.00
69416;PMS5003;61386;54.994;73.448;2022-07-15T02:26:19;13.00;12.00;5.50
69416;PMS5003;61386;54.994;73.448;2022-07-15T02:28:46;12.00;12.00;6.00
69416;PMS5003;61386;54.994;73.448;2022-07-15T02:31:12;10.00;10.00;5.50
69416;PMS5003;61386;54.994;73.448;2022-07-15T02:33:39;9.00;9.00;6.00
69416;PMS5003;61386;54.994;73.448;2022-07-15T02:36:12;9.50;9.50;5.75
69416;PMS5003;61386;54.994;73.448;2022-07-15T02:38:40;8.75;8.75;5.00
69416;PMS5003;61386;54.994;73.448;2022-07-15T02:41:08;10.00;10.00;5.00
69416;PMS5003;61386;54.994;73.448;2022-07-15T02:43:37;10.00;10.00;4.25
69416;PMS5003;61386;54.994;73.448;2022-07-15T02:46:06;8.25;8.25;5.00
69416;PMS5003;61386;54.994;73.448;2022-07-15T02:48:32;10.00;10.00;4.00
69416;PMS5003;61386;54.994;73.448;2022-07-15T02:51:11;12.00;12.00;5.00
69416;PMS5003;61386;54.994;73.448;2022-07-15T02:53:38;10.75;10.75;5.00
69416;PMS5003;61386;54.994;73.448;2022-07-15T02:56:09;9.00;9.00;5.00
69416;PMS5003;61386;54.994;73.448;2022-07-15T02:58:42;9.00;9.00;5.00
69416;PMS5003;61386;54.994;73.448;2022-07-15T03:01:08;10.00;10.00;4.50
69416;PMS5003;61386;54.994;73.448;2022-07-15T03:03:36;8.00;8.00;3.25
69416;PMS5003;61386;54.994;73.448;2022-07-15T03:06:03;9.00;9.00;5.00
69416;PMS5003;61386;54.994;73.448;2022-07-15T03:08:30;10.75;10.00;4.75
69416;PMS5003;61386;54.994;73.448;2022-07-15T03:10:57;10.00;9.00;3.00
69416;PMS5003;61386;54.994;73.448;2022-07-15T03:13:23;8.00;8.00;4.00
69416;PMS5003;61386;54.994;73.448;2022-07-15T03:16:01;8.00;8.00;3.00
69416;PMS5003;61386;54.994;73.448;2022-07-15T03:18:30;8.50;7.75;5.25
69416;PMS5003;61386;54.994;73.448;2022-07-15T03:20:57;11.00;10.00;4.25
69416;PMS5003;61386;54.994;73.448;2022-07-15T03:23:23;11.50;10.50;4.75
69416;PMS5003;61386;54.994;73.448;2022-07-15T03:25:51;10.00;9.00;4.50
69416;PMS5003;61386;54.994;73.448;2022-07-15T03:28:17;8.25;7.75;3.75
69416;PMS5003;61386;54.994;73.448;2022-07-15T03:30:47;13.00;12.00;5.00
69416;PMS5003;61386;54.994;73.448;2022-07-15T03:33:14;12.75;12.75;5.00
69416;PMS5003;61386;54.994;73.448;2022-07-15T03:35:45;11.00;11.00;5.00
69416;PMS5003;61386;54.994;73.448;2022-07-15T03:38:11;11.25;11.00;6.00
69416;PMS5003;61386;54.994;73.448;2022-07-15T03:40:37;12.25;12.00;5.75
69416;PMS5003;61386;54.994;73.448;2022-07-15T03:43:03;15.25;14.00;5.00
69416;PMS5003;61386;54.994;73.448;2022-07-15T03:45:32;15.50;14.00;6.00
69416;PMS5003;61386;54.994;73.448;2022-07-15T03:47:58;12.75;10.75;5.50
69416;PMS5003;61386;54.994;73.448;2022-07-15T03:50:24;15.00;11.75;6.00
69416;PMS5003;61386;54.994;73.448;2022-07-15T03:52:50;16.25;14.75;6.00
69416;PMS5003;61386;54.994;73.448;2022-07-15T03:55:16;17.00;15.00;6.00
69416;PMS5003;61386;54.994;73.448;2022-07-15T03:57:42;16.25;15.25;5.75
69416;PMS5003;61386;54.994;73.448;2022-07-15T04:00:09;17.00;16.00;6.00
69416;PMS5003;61386;54.994;73.448;2022-07-15T04:02:41;17.00;16.00;7.00
69416;PMS5003;61386;54.994;73.448;2022-07-15T04:05:07;17.00;16.00;7.00
69416;PMS5003;61386;54.994;73.448;2022-07-15T04:07:43;18.00;16.00;8.00
69416;PMS5003;61386;54.994;73.448;2022-07-15T04:10:09;16.50;15.75;8.00
69416;PMS5003;61386;54.994;73.448;2022-07-15T04:12:35;18.50;18.00;8.00
69416;PMS5003;61386;54.994;73.448;2022-07-15T04:15:01;19.00;18.00;9.00
69416;PMS5003;61386;54.994;73.448;2022-07-15T04:17:27;16.00;16.00;8.25
69416;PMS5003;61386;54.994;73.448;2022-07-15T04:19:53;18.50;17.50;8.00
69416;PMS5003;61386;54.994;73.448;2022-07-15T04:22:30;17.00;16.00;7.00
69416;PMS5003;61386;54.994;73.448;2022-07-15T04:25:02;16.75;15.75;7.50
69416;PMS5003;61386;54.994;73.448;2022-07-15T04:27:28;19.25;18.25;9.25
69416;PMS5003;61386;54.994;73.448;2022-07-15T04:29:54;17.00;17.00;7.00
69416;PMS5003;61386;54.994;73.448;2022-07-15T04:32:20;20.00;17.00;8.75
69416;PMS5003;61386;54.994;73.448;2022-07-15T04:34:55;23.00;20.00;9.00
69416;PMS5003;61386;54.994;73.448;2022-07-15T04:37:21;22.00;21.00;9.00
69416;PMS5003;61386;54.994;73.448;2022-07-15T04:39:52;22.00;21.25;11.00
69416;PMS5003;61386;54.994;73.448;2022-07-15T04:42:28;20.00;20.00;9.00
69416;PMS5003;61386;54.994;73.448;2022-07-15T04:45:00;19.75;19.75;8.75
69416;PMS5003;61386;54.994;73.448;2022-07-15T04:47:26;19.00;19.00;8.75
69416;PMS5003;61386;54.994;73.448;2022-07-15T04:49:57;22.00;20.00;8.25
69416;PMS5003;61386;54.994;73.448;2022-07-15T04:52:48;20.00;18.00;9.00
69416;PMS5003;61386;54.994;73.448;2022-07-15T04:55:16;20.75;20.50;10.75
69416;PMS5003;61386;54.994;73.448;2022-07-15T04:57:42;23.00;21.00;12.00
69416;PMS5003;61386;54.994;73.448;2022-07-15T05:00:13;21.75;21.00;10.00
69416;PMS5003;61386;54.994;73.448;2022-07-15T05:02:39;22.75;21.00;9.00
69416;PMS5003;61386;54.994;73.448;2022-07-15T05:05:11;22.00;21.00;10.00
69416;PMS5003;61386;54.994;73.448;2022-07-15T05:07:37;23.00;20.00;8.25
69416;PMS5003;61386;54.994;73.448;2022-07-15T05:10:04;21.75;20.00;10.00
69416;PMS5003;61386;54.994;73.448;2022-07-15T05:12:42;21.75;20.75;10.00
69416;PMS5003;61386;54.994;73.448;2022-07-15T05:15:09;22.00;21.00;10.25
69416;PMS5003;61386;54.994;73.448;2022-07-15T05:17:35;20.50;20.25;7.50
69416;PMS5003;61386;54.994;73.448;2022-07-15T05:20:02;22.00;21.00;9.00
69416;PMS5003;61386;54.994;73.448;2022-07-15T05:22:28;20.50;20.50;9.00
69416;PMS5003;61386;54.994;73.448;2022-07-15T05:24:58;24.50;23.50;13.75
69416;PMS5003;61386;54.994;73.448;2022-07-15T05:27:33;22.00;22.00;13.50
69416;PMS5003;61386;54.994;73.448;2022-07-15T05:30:04;23.00;23.00;13.00
69416;PMS5003;61386;54.994;73.448;2022-07-15T05:32:41;23.00;22.75;11.50
69416;PMS5003;61386;54.994;73.448;2022-07-15T05:35:12;22.00;22.00;10.00
69416;PMS5003;61386;54.994;73.448;2022-07-15T05:37:41;19.00;19.00;9.00
69416;PMS5003;61386;54.994;73.448;2022-07-15T05:40:10;19.00;19.00;7.00
69416;PMS5003;61386;54.994;73.448;2022-07-15T05:42:44;19.25;19.00;9.00
69416;PMS5003;61386;54.994;73.448;2022-07-15T05:45:14;19.25;18.50;8.00
69416;PMS5003;61386;54.994;73.448;2022-07-15T05:47:50;19.00;19.00;8.75
69416;PMS5003;61386;54.994;73.448;2022-07-15T05:50:30;20.00;20.00;8.00
69416;PMS5003;61386;54.994;73.448;2022-07-15T05:52:59;21.00;19.00;9.00
69416;PMS5003;61386;54.994;73.448;2022-07-15T05:55:25;22.25;20.50;10.00
69416;PMS5003;61386;54.994;73.448;2022-07-15T05:57:51;24.25;20.75;8.00
69416;PMS5003;61386;54.994;73.448;2022-07-15T06:00:22;24.00;21.75;8.50
69416;PMS5003;61386;54.994;73.448;2022-07-15T06:02:48;23.25;21.25;11.00
69416;PMS5003;61386;54.994;73.448;2022-07-15T06:05:20;23.00;21.75;8.00
69416;PMS5003;61386;54.994;73.448;2022-07-15T06:07:50;21.00;21.00;9.00
69416;PMS5003;61386;54.994;73.448;2022-07-15T06:10:32;21.00;21.00;11.00
69416;PMS5003;61386;54.994;73.448;2022-07-15T06:12:58;22.00;22.00;9.00
69416;PMS5003;61386;54.994;73.448;2022-07-15T06:15:24;23.00;22.50;13.00
69416;PMS5003;61386;54.994;73.448;2022-07-15T06:17:50;21.75;21.75;12.50
69416;PMS5003;61386;54.994;73.448;2022-07-15T06:20:20;20.00;20.00;8.75
69416;PMS5003;61386;54.994;73.448;2022-07-15T06:22:46;19.00;18.00;7.00
69416;PMS5003;61386;54.994;73.448;2022-07-15T06:25:12;18.00;18.00;8.00
69416;PMS5003;61386;54.994;73.448;2022-07-15T06:27:38;17.75;17.50;7.75
69416;PMS5003;61386;54.994;73.448;2022-07-15T06:30:05;19.00;18.25;8.00
69416;PMS5003;61386;54.994;73.448;2022-07-15T06:32:31;17.50;17.00;6.00
69416;PMS5003;61386;54.994;73.448;2022-07-15T06:34:58;19.00;17.00;7.00
69416;PMS5003;61386;54.994;73.448;2022-07-15T06:37:25;19.50;18.00;8.00
69416;PMS5003;61386;54.994;73.448;2022-07-15T06:40:01;20.75;19.75;7.25
69416;PMS5003;61386;54.994;73.448;2022-07-15T06:42:27;21.00;21.00;9.50
69416;PMS5003;61386;54.994;73.448;2022-07-15T06:45:03;19.00;18.50;6.75
69416;PMS5003;61386;54.994;73.448;2022-07-15T06:47:29;17.00;17.00;7.00
69416;PMS5003;61386;54.994;73.448;2022-07-15T06:49:57;17.00;16.00;6.50
69416;PMS5003;61386;54.994;73.448;2022-07-15T06:52:26;18.50;17.25;8.50
69416;PMS5003;61386;54.994;73.448;2022-07-15T06:54:51;18.00;18.00;8.00
69416;PMS5003;61386;54.994;73.448;2022-07-15T06:57:19;19.00;19.00;8.00
69416;PMS5003;61386;54.994;73.448;2022-07-15T06:59:46;18.00;18.00;8.00
69416;PMS5003;61386;54.994;73.448;2022-07-15T07:02:21;17.00;16.00;7.00
69416;PMS5003;61386;54.994;73.448;2022-07-15T07:04:47;17.25;15.25;6.25
69416;PMS5003;61386;54.994;73.448;2022-07-15T07:07:13;18.00;17.50;7.50
69416;PMS5003;61386;54.994;73.448;2022-07-15T07:09:39;19.00;18.00;8.00
69416;PMS5003;61386;54.994;73.448;2022-07-15T07:12:11;18.75;17.75;6.50
69416;PMS5003;61386;54.994;73.448;2022-07-15T07:14:37;17.00;16.00;7.00
69416;PMS5003;61386;54.994;73.448;2022-07-15T07:17:02;16.00;16.00;6.75
69416;PMS5003;61386;54.994;73.448;2022-07-15T07:19:38;17.00;17.00;6.00
69416;PMS5003;61386;54.994;73.448;2022-07-15T07:22:04;18.00;18.00;7.00
69416;PMS5003;61386;54.994;73.448;2022-07-15T07:24:31;18.00;18.00;7.75
69416;PMS5003;61386;54.994;73.448;2022-07-15T07:26:57;18.00;18.00;7.00
69416;PMS5003;61386;54.994;73.448;2022-07-15T07:29:32;18.00;17.00;8.00
69416;PMS5003;61386;54.994;73.448;2022-07-15T07:31:59;22.25;21.50;11.75
69416;PMS5003;61386;54.994;73.448;2022-07-15T07:34:25;22.75;20.00;9.00
69416;PMS5003;61386;54.994;73.448;2022-07-15T07:36:51;20.75;20.00;9.00
69416;PMS5003;61386;54.994;73.448;2022-07-15T07:39:16;19.00;19.00;9.00
69416;PMS5003;61386;54.994;73.448;2022-07-15T07:41:42;19.50;19.00;8.00
69416;PMS5003;61386;54.994;73.448;2022-07-15T07:44:08;19.00;19.00;7.25
69416;PMS5003;61386;54.994;73.448;2022-07-15T07:46:35;18.25;18.25;8.25
69416;PMS5003;61386;54.994;73.448;2022-07-15T07:49:01;19.00;19.00;7.00
69416;PMS5003;61386;54.994;73.448;2022-07-15T07:51:27;20.00;17.00;8.00
69416;PMS5003;61386;54.994;73.448;2022-07-15T07:53:52;20.00;17.75;6.25
69416;PMS5003;61386;54.994;73.448;2022-07-15T07:56:18;20.00;19.00;8.75
69416;PMS5003;61386;54.994;73.448;2022-07-15T07:58:44;20.00;20.00;8.25
69416;PMS5003;61386;54.994;73.448;2022-07-15T08:01:10;21.00;21.00;8.00
69416;PMS5003;61386;54.994;73.448;2022-07-15T08:03:36;19.00;19.00;7.00
69416;PMS5003;61386;54.994;73.448;2022-07-15T08:06:03;19.00;19.00;9.25
69416;PMS5003;61386;54.994;73.448;2022-07-15T08:08:29;19.00;18.00;7.00
69416;PMS5003;61386;54.994;73.448;2022-07-15T08:10:55;19.00;17.75;6.50
69416;PMS5003;61386;54.994;73.448;2022-07-15T08:13:23;18.00;17.00;7.00
69416;PMS5003;61386;54.994;73.448;2022-07-15T08:15:55;15.75;15.75;6.00
69416;PMS5003;61386;54.994;73.448;2022-07-15T08:18:22;19.00;18.00;6.00
69416;PMS5003;61386;54.994;73.448;2022-07-15T08:20:48;17.75;17.00;5.00
69416;PMS5003;61386;54.994;73.448;2022-07-15T08:23:20;16.00;16.00;6.00
69416;PMS5003;61386;54.994;73.448;2022-07-15T08:25:47;15.50;15.50;6.25
69416;PMS5003;61386;54.994;73.448;2022-07-15T08:28:13;14.00;14.00;7.00
69416;PMS5003;61386;54.994;73.448;2022-07-15T08:30:39;16.00;15.00;6.00
69416;PMS5003;61386;54.994;73.448;2022-07-15T08:33:10;16.00;16.00;7.00
69416;PMS5003;61386;54.994;73.448;2022-07-15T08:35:36;17.00;17.00;6.00
69416;PMS5003;61386;54.994;73.448;2022-07-15T08:38:03;15.00;15.00;5.00
69416;PMS5003;61386;54.994;73.448;2022-07-15T08:40:31;14.00;13.75;5.00
69416;PMS5003;61386;54.994;73.448;2022-07-15T08:42:57;12.00;12.00;5.00
69416;PMS5003;61386;54.994;73.448;2022-07-15T08:45:23;12.75;11.75;5.00
69416;PMS5003;61386;54.994;73.448;2022-07-15T08:47:51;14.00;12.00;6.00
69416;PMS5003;61386;54.994;73.448;2022-07-15T08:50:17;15.00;13.00;5.00
69416;PMS5003;61386;54.994;73.448;2022-07-15T08:52:54;15.00;13.25;5.00
69416;PMS5003;61386;54.994;73.448;2022-07-15T08:55:21;14.75;13.75;5.00
69416;PMS5003;61386;54.994;73.448;2022-07-15T08:57:47;11.75;11.75;5.00
69416;PMS5003;61386;54.994;73.448;2022-07-15T09:00:14;9.00;9.00;4.00
69416;PMS5003;61386;54.994;73.448;2022-07-15T09:02:40;8.00;7.50;4.25
69416;PMS5003;61386;54.994;73.448;2022-07-15T09:05:18;12.00;11.00;6.00
69416;PMS5003;61386;54.994;73.448;2022-07-15T09:08:03;12.50;9.75;5.00
69416;PMS5003;61386;54.994;73.448;2022-07-15T09:10:43;11.75;10.00;4.00
69416;PMS5003;61386;54.994;73.448;2022-07-15T09:13:32;11.00;10.00;4.00
69416;PMS5003;61386;54.994;73.448;2022-07-15T09:15:57;11.50;11.00;6.00
69416;PMS5003;61386;54.994;73.448;2022-07-15T09:18:25;13.00;12.00;6.00
69416;PMS5003;61386;54.994;73.448;2022-07-15T09:21:00;15.00;14.00;6.00
69416;PMS5003;61386;54.994;73.448;2022-07-15T09:23:28;13.00;12.00;6.00
69416;PMS5003;61386;54.994;73.448;2022-07-15T09:26:40;11.00;11.00;5.50
69416;PMS5003;61386;54.994;73.448;2022-07-15T09:28:51;13.25;12.25;6.00
69416;PMS5003;61386;54.994;73.448;2022-07-15T09:31:31;12.50;9.50;5.50
69416;PMS5003;61386;54.994;73.448;2022-07-15T09:34:16;11.00;10.00;4.50
69416;PMS5003;61386;54.994;73.448;2022-07-15T09:36:44;13.00;11.00;4.75
69416;PMS5003;61386;54.994;73.448;2022-07-15T09:39:17;11.00;10.00;4.00
69416;PMS5003;61386;54.994;73.448;2022-07-15T09:41:44;11.00;10.00;5.00
69416;PMS5003;61386;54.994;73.448;2022-07-15T09:49:12;10.00;8.50;3.00
69416;PMS5003;61386;54.994;73.448;2022-07-15T09:51:42;8.75;7.25;3.75
69416;PMS5003;61386;54.994;73.448;2022-07-15T09:54:09;9.75;8.75;3.75
69416;PMS5003;61386;54.994;73.448;2022-07-15T09:56:36;10.00;10.00;5.00
69416;PMS5003;61386;54.994;73.448;2022-07-15T09:59:08;9.50;9.50;5.00
69416;PMS5003;61386;54.994;73.448;2022-07-15T10:01:35;8.00;8.00;5.00
69416;PMS5003;61386;54.994;73.448;2022-07-15T10:04:02;7.00;7.00;3.00
69416;PMS5003;61386;54.994;73.448;2022-07-15T10:06:28;7.50;7.50;3.25
69416;PMS5003;61386;54.994;73.448;2022-07-15T10:08:54;7.00;7.00;3.00
69416;PMS5003;61386;54.994;73.448;2022-07-15T10:11:22;7.75;7.75;3.00
69416;PMS5003;61386;54.994;73.448;2022-07-15T10:19:18;7.00;7.00;2.50
69416;PMS5003;61386;54.994;73.448;2022-07-15T10:29:45;8.25;8.25;4.00
69416;PMS5003;61386;54.994;73.448;2022-07-15T10:32:12;6.00;6.00;2.50
69416;PMS5003;61386;54.994;73.448;2022-07-15T10:34:38;9.25;9.25;3.00
69416;PMS5003;61386;54.994;73.448;2022-07-15T10:37:06;9.00;7.00;3.50
69416;PMS5003;61386;54.994;73.448;2022-07-15T10:42:17;6.00;6.00;3.00
69416;PMS5003;61386;54.994;73.448;2022-07-15T10:45:01;6.75;6.75;3.00
69416;PMS5003;61386;54.994;73.448;2022-07-15T10:47:28;8.50;8.00;3.00
69416;PMS5003;61386;54.994;73.448;2022-07-15T10:49:54;7.75;7.75;3.00
69416;PMS5003;61386;54.994;73.448;2022-07-15T11:03:02;5.00;5.00;2.00
69416;PMS5003;61386;54.994;73.448;2022-07-15T11:13:43;11.00;11.00;4.00
69416;PMS5003;61386;54.994;73.448;2022-07-15T11:16:20;8.50;7.50;3.75
69416;PMS5003;61386;54.994;73.448;2022-07-15T11:18:47;8.00;8.00;4.00
69416;PMS5003;61386;54.994;73.448;2022-07-15T11:21:14;9.00;9.00;5.00
69416;PMS5003;61386;54.994;73.448;2022-07-15T11:23:42;7.50;7.25;3.00
69416;PMS5003;61386;54.994;73.448;2022-07-15T11:26:20;9.25;8.00;3.00
69416;PMS5003;61386;54.994;73.448;2022-07-15T11:28:52;10.75;9.75;4.00
69416;PMS5003;61386;54.994;73.448;2022-07-15T11:31:29;8.00;8.00;4.00
69416;PMS5003;61386;54.994;73.448;2022-07-15T11:34:14;11.00;11.00;4.00
69416;PMS5003;61386;54.994;73.448;2022-07-15T11:36:57;7.00;7.00;3.00
69416;PMS5003;61386;54.994;73.448;2022-07-15T11:39:27;7.75;6.75;2.00
69416;PMS5003;61386;54.994;73.448;2022-07-15T11:41:53;8.00;8.00;4.00
69416;PMS5003;61386;54.994;73.448;2022-07-15T11:44:50;8.25;8.25;3.00
69416;PMS5003;61386;54.994;73.448;2022-07-15T11:47:16;9.25;8.25;5.00
69416;PMS5003;61386;54.994;73.448;2022-07-15T11:49:43;7.00;7.00;3.00
69416;PMS5003;61386;54.994;73.448;2022-07-15T11:52:10;9.00;9.00;4.00
69416;PMS5003;61386;54.994;73.448;2022-07-15T11:54:37;8.25;8.25;3.00
69416;PMS5003;61386;54.994;73.448;2022-07-15T11:57:05;9.00;9.00;4.00
69416;PMS5003;61386;54.994;73.448;2022-07-15T11:59:36;9.25;9.00;3.00
69416;PMS5003;61386;54.994;73.448;2022-07-15T12:04:32;10.25;9.00;5.00
69416;PMS5003;61386;54.994;73.448;2022-07-15T12:06:58;8.50;7.50;4.00
69416;PMS5003;61386;54.994;73.448;2022-07-15T12:09:25;5.50;5.00;3.00
69416;PMS5003;61386;54.994;73.448;2022-07-15T12:11:51;8.00;7.00;2.00
69416;PMS5003;61386;54.994;73.448;2022-07-15T12:14:18;8.00;6.00;2.25
69416;PMS5003;61386;54.994;73.448;2022-07-15T12:16:45;7.75;7.75;3.00
69416;PMS5003;61386;54.994;73.448;2022-07-15T12:19:27;12.00;12.00;4.75
69416;PMS5003;61386;54.994;73.448;2022-07-15T12:21:56;8.50;8.00;4.00
69416;PMS5003;61386;54.994;73.448;2022-07-15T12:24:43;8.00;8.00;3.00
69416;PMS5003;61386;54.994;73.448;2022-07-15T12:27:10;7.00;7.00;4.00
69416;PMS5003;61386;54.994;73.448;2022-07-15T12:29:38;6.50;6.00;3.00
69416;PMS5003;61386;54.994;73.448;2022-07-15T12:32:05;7.00;7.00;5.00
69416;PMS5003;61386;54.994;73.448;2022-07-15T12:37:16;20.75;19.50;8.00
69416;PMS5003;61386;54.994;73.448;2022-07-15T12:42:21;11.00;9.00;3.00
69416;PMS5003;61386;54.994;73.448;2022-07-15T12:45:04;9.25;9.25;3.75
69416;PMS5003;61386;54.994;73.448;2022-07-15T12:47:35;5.00;5.00;2.00
69416;PMS5003;61386;54.994;73.448;2022-07-15T12:50:02;4.00;3.25;1.00
69416;PMS5003;61386;54.994;73.448;2022-07-15T12:52:33;5.50;5.00;1.00
69416;PMS5003;61386;54.994;73.448;2022-07-15T12:55:12;4.25;4.25;2.00
69416;PMS5003;61386;54.994;73.448;2022-07-15T12:57:38;6.00;6.00;2.50
69416;PMS5003;61386;54.994;73.448;2022-07-15T13:00:15;5.00;5.00;1.00
69416;PMS5003;61386;54.994;73.448;2022-07-15T13:02:58;6.00;6.00;1.00
69416;PMS5003;61386;54.994;73.448;2022-07-15T13:05:26;5.00;4.25;1.00
69416;PMS5003;61386;54.994;73.448;2022-07-15T13:07:58;6.00;4.50;2.00
69416;PMS5003;61386;54.994;73.448;2022-07-15T13:10:29;6.00;6.00;3.00
69416;PMS5003;61386;54.994;73.448;2022-07-15T13:12:55;5.00;5.00;2.00
69416;PMS5003;61386;54.994;73.448;2022-07-15T13:15:21;5.00;5.00;4.00
69416;PMS5003;61386;54.994;73.448;2022-07-15T13:17:52;6.00;6.00;3.00
69416;PMS5003;61386;54.994;73.448;2022-07-15T13:20:18;5.00;4.75;2.00
69416;PMS5003;61386;54.994;73.448;2022-07-15T13:22:45;5.00;4.50;3.00
69416;PMS5003;61386;54.994;73.448;2022-07-15T13:25:16;7.00;6.75;3.00
69416;PMS5003;61386;54.994;73.448;2022-07-15T13:27:53;6.00;6.00;3.00
69416;PMS5003;61386;54.994;73.448;2022-07-15T13:30:21;4.00;4.00;2.00
69416;PMS5003;61386;54.994;73.448;2022-07-15T13:32:47;4.00;4.00;2.00
69416;PMS5003;61386;54.994;73.448;2022-07-15T13:35:15;4.00;4.00;2.00
69416;PMS5003;61386;54.994;73.448;2022-07-15T13:37:41;4.00;4.00;2.00
69416;PMS5003;61386;54.994;73.448;2022-07-15T13:40:08;4.00;4.00;3.00
69416;PMS5003;61386;54.994;73.448;2022-07-15T13:42:44;4.00;4.00;1.00
69416;PMS5003;61386;54.994;73.448;2022-07-15T13:45:11;6.00;6.00;2.50
69416;PMS5003;61386;54.994;73.448;2022-07-15T13:47:37;6.00;6.00;3.25
69416;PMS5003;61386;54.994;73.448;2022-07-15T13:50:04;7.00;7.00;2.75
69416;PMS5003;61386;54.994;73.448;2022-07-15T13:52:51;6.00;6.00;3.00
69416;PMS5003;61386;54.994;73.448;2022-07-15T13:55:19;5.00;5.00;3.00
69416;PMS5003;61386;54.994;73.448;2022-07-15T13:57:51;4.75;4.75;3.00
69416;PMS5003;61386;54.994;73.448;2022-07-15T14:00:18;5.25;5.25;2.75
69416;PMS5003;61386;54.994;73.448;2022-07-15T14:02:45;4.75;4.75;2.00
69416;PMS5003;61386;54.994;73.448;2022-07-15T14:05:12;5.00;5.00;2.00
69416;PMS5003;61386;54.994;73.448;2022-07-15T14:07:38;5.50;5.50;1.00
69416;PMS5003;61386;54.994;73.448;2022-07-15T14:10:10;6.00;6.00;2.50
69416;PMS5003;61386;54.994;73.448;2022-07-15T14:12:36;6.50;6.50;2.00
69416;PMS5003;61386;54.994;73.448;2022-07-15T14:15:02;5.00;5.00;1.00
69416;PMS5003;61386;54.994;73.448;2022-07-15T14:17:29;4.00;4.00;1.00
69416;PMS5003;61386;54.994;73.448;2022-07-15T14:20:05;4.00;4.00;1.00
69416;PMS5003;61386;54.994;73.448;2022-07-15T14:22:31;6.00;6.00;2.00
69416;PMS5003;61386;54.994;73.448;2022-07-15T14:24:57;6.75;6.00;3.50
69416;PMS5003;61386;54.994;73.448;2022-07-15T14:27:28;8.00;7.50;3.00
69416;PMS5003;61386;54.994;73.448;2022-07-15T14:30:04;7.25;7.00;3.00
69416;PMS5003;61386;54.994;73.448;2022-07-15T14:32:31;7.00;6.00;3.00
69416;PMS5003;61386;54.994;73.448;2022-07-15T14:34:57;8.25;7.25;1.25
69416;PMS5003;61386;54.994;73.448;2022-07-15T14:37:23;9.00;8.00;4.00
69416;PMS5003;61386;54.994;73.448;2022-07-15T14:39:49;7.00;6.00;3.00
69416;PMS5003;61386;54.994;73.448;2022-07-15T14:42:19;7.50;7.25;3.00
69416;PMS5003;61386;54.994;73.448;2022-07-15T14:44:48;7.00;7.00;3.75
69416;PMS5003;61386;54.994;73.448;2022-07-15T14:47:14;7.00;7.00;5.00
69416;PMS5003;61386;54.994;73.448;2022-07-15T14:49:40;7.25;7.00;3.50
69416;PMS5003;61386;54.994;73.448;2022-07-15T14:52:09;6.50;6.50;2.50